Time;durP1;ratioP1;P1;durP2;ratioP2;P2;SDS_P1;SDS_P2;PMS_P1;PMS_P2;Temp;Humidity;BMP_temperature;BMP_pressure;BME280_temperature;BME280_humidity;BME280_pressure;Samples;Min_cycle;Max_cycle;Signal;HPM_P1;HPM_P2
2022/03/20 00:00:47;;;;;;;;;5.50;4.75;;;;;10.03;37.49;102121.56;5092046;27;45416;-81
2022/03/20 00:03:14;;;;;;;;;4.00;4.00;;;;;10.11;37.42;102142.16;5091108;28;45112;-82
2022/03/20 00:05:41;;;;;;;;;5.00;5.00;;;;;9.96;37.22;102119.41;5091719;27;45620;-82
2022/03/20 00:08:11;;;;;;;;;8.50;6.00;;;;;10.05;37.57;102145.31;5107445;27;45562;-82
2022/03/20 00:10:42;;;;;;;;;5.00;5.00;;;;;10.03;37.70;102141.69;5108961;27;45218;-82
2022/03/20 00:13:08;;;;;;;;;6.00;4.50;;;;;10.01;37.64;102138.97;5091374;28;44974;-81
2022/03/20 00:15:34;;;;;;;;;6.25;5.25;;;;;9.96;37.54;102129.00;5091794;28;45386;-81
2022/03/20 00:18:00;;;;;;;;;4.50;4.50;;;;;9.77;37.14;102108.63;5091434;28;45063;-82
2022/03/20 00:20:25;;;;;;;;;4.00;4.00;;;;;9.92;37.35;102140.16;5091585;28;45556;-82
2022/03/20 00:22:50;;;;;;;;;4.75;4.25;;;;;9.88;37.44;102128.53;5095271;27;45124;-81
2022/03/20 00:25:16;;;;;;;;;3.00;3.00;;;;;9.86;37.37;102132.81;5111437;27;45936;-81
2022/03/20 00:27:42;;;;;;;;;4.00;3.25;;;;;9.84;37.35;102131.78;5111685;27;45125;-81
2022/03/20 00:30:07;;;;;;;;;5.00;4.00;;;;;9.70;37.44;102115.22;5112220;27;45079;-82
2022/03/20 00:32:33;;;;;;;;;4.75;4.50;;;;;9.80;37.47;102138.59;5111775;27;45058;-82
2022/03/20 00:34:59;;;;;;;;;4.50;4.50;;;;;9.74;37.32;102132.97;5112451;27;45884;-81
2022/03/20 00:37:26;;;;;;;;;2.25;2.25;;;;;9.72;37.52;102136.31;5109786;27;45188;-82
2022/03/20 00:39:52;;;;;;;;;4.00;4.00;;;;;9.55;37.92;102103.78;5111935;27;45086;-82
2022/03/20 00:42:17;;;;;;;;;3.00;3.00;;;;;9.66;38.28;102126.38;5109932;27;45316;-82
2022/03/20 00:44:42;;;;;;;;;5.00;5.00;;;;;9.62;37.94;102116.50;5112194;27;45557;-81
2022/03/20 00:47:08;;;;;;;;;4.75;4.75;;;;;9.10;37.69;102034.59;5106308;27;45120;-81
2022/03/20 00:49:33;;;;;;;;;4.00;4.00;;;;;9.60;37.84;102123.34;5091229;28;45048;-81
2022/03/20 00:51:58;;;;;;;;;2.67;2.00;;;;;9.51;38.41;102109.69;5091054;28;48462;-81
2022/03/20 00:54:23;;;;;;;;;3.00;3.00;;;;;9.59;37.89;102126.78;5090210;27;45794;-81
2022/03/20 00:56:49;;;;;;;;;4.67;3.33;;;;;9.49;37.83;102116.56;5091167;27;45307;-82
2022/03/20 00:59:14;;;;;;;;;3.00;3.00;;;;;9.38;37.76;102102.78;5092987;27;45129;-81
2022/03/20 01:01:41;;;;;;;;;3.00;3.00;;;;;9.37;38.31;102092.19;5111869;27;45082;-82
2022/03/20 01:04:07;;;;;;;;;4.25;3.25;;;;;9.54;38.20;102133.47;5109131;27;45533;-81
2022/03/20 01:06:32;;;;;;;;;4.00;3.00;;;;;9.45;38.28;102114.53;5089283;28;45502;-82
2022/03/20 01:08:58;;;;;;;;;2.75;2.25;;;;;9.34;38.63;102098.16;5090279;27;45126;-82
2022/03/20 01:11:23;;;;;;;;;4.00;4.00;;;;;9.47;38.51;102131.31;5098625;27;45185;-82
2022/03/20 01:13:49;;;;;;;;;3.25;2.75;;;;;9.33;38.92;102105.94;5110969;27;45181;-82
2022/03/20 01:16:14;;;;;;;;;4.00;4.00;;;;;9.41;39.24;102116.09;5086353;28;45056;-81
2022/03/20 01:18:39;;;;;;;;;4.25;3.00;;;;;9.37;38.79;102111.47;5090356;27;45066;-81
2022/03/20 01:21:05;;;;;;;;;3.00;3.00;;;;;9.16;38.63;102073.41;5090745;27;45166;-81
2022/03/20 01:23:30;;;;;;;;;3.25;3.25;;;;;9.16;39.04;102082.22;5089091;27;45304;-81
2022/03/20 01:25:56;;;;;;;;;3.00;3.00;;;;;9.31;39.13;102108.47;5090121;27;45171;-81
2022/03/20 01:28:23;;;;;;;;;3.00;3.00;;;;;9.09;38.99;102074.75;5089772;27;45078;-82
2022/03/20 01:30:48;;;;;;;;;6.25;4.25;;;;;9.21;39.32;102095.56;5090383;27;45391;-81
2022/03/20 01:33:14;;;;;;;;;6.00;3.00;;;;;9.14;39.62;102088.16;5104505;27;47229;-81
2022/03/20 01:35:40;;;;;;;;;3.25;2.50;;;;;9.16;39.64;102081.28;5106332;27;45130;-81
2022/03/20 01:38:06;;;;;;;;;3.50;3.50;;;;;8.92;39.47;102043.97;5089807;28;45230;-81
2022/03/20 01:40:32;;;;;;;;;3.50;3.00;;;;;9.12;39.20;102074.97;5089234;28;44999;-81
2022/03/20 01:42:57;;;;;;;;;4.00;4.00;;;;;8.98;39.70;102065.34;5090268;27;45501;-81
2022/03/20 01:45:24;;;;;;;;;3.50;3.50;;;;;9.12;39.88;102095.94;5110019;27;45102;-81
2022/03/20 01:47:51;;;;;;;;;4.00;3.75;;;;;9.09;40.40;102087.88;5105891;27;45145;-81
2022/03/20 01:50:18;;;;;;;;;4.75;3.50;;;;;9.04;40.61;102087.59;5110652;27;44975;-81
2022/03/20 01:52:48;;;;;;;;;3.25;3.00;;;;;8.88;40.27;102060.31;5109088;27;46282;-81
2022/03/20 01:55:15;;;;;;;;;3.75;2.00;;;;;8.97;40.10;102080.16;5110193;27;45079;-81
2022/03/20 01:57:41;;;;;;;;;4.25;3.25;;;;;8.97;39.81;102080.16;5110886;27;45236;-82
2022/03/20 02:00:08;;;;;;;;;4.25;3.25;;;;;8.92;40.69;102070.19;5103629;27;45481;-81
2022/03/20 02:02:34;;;;;;;;;4.00;3.50;;;;;8.75;40.73;102041.19;5089847;28;45477;-81
2022/03/20 02:04:59;;;;;;;;;4.00;4.00;;;;;8.93;40.51;102079.88;5090300;28;45052;-82
2022/03/20 02:07:25;;;;;;;;;2.25;2.00;;;;;8.87;40.56;102069.91;5089719;28;45103;-81
2022/03/20 02:09:51;;;;;;;;;3.00;2.75;;;;;8.83;40.69;102062.66;5089332;28;45514;-81
2022/03/20 02:12:17;;;;;;;;;5.00;3.00;;;;;8.71;40.12;102038.28;5088314;27;46019;-81
2022/03/20 02:14:43;;;;;;;;;3.50;3.50;;;;;8.87;40.43;102062.03;5089978;28;45938;-80
2022/03/20 02:17:12;;;;;;;;;3.50;3.00;;;;;8.84;40.79;102050.44;5089194;28;45014;-81
2022/03/20 02:19:39;;;;;;;;;4.25;4.00;;;;;8.79;40.98;102056.31;5090240;28;45074;-81
2022/03/20 02:22:05;;;;;;;;;5.00;3.25;;;;;8.76;41.39;102053.47;5089556;28;45449;-81
2022/03/20 02:24:42;;;;;;;;;2.25;2.25;;;;;8.73;40.77;102048.06;5087024;28;45502;-81
2022/03/20 02:27:17;;;;;;;;;5.00;3.75;;;;;8.67;41.20;102041.50;5089206;27;45169;-82
2022/03/20 02:29:44;;;;;;;;;3.00;3.00;;;;;8.69;41.06;102046.06;5089756;28;45087;-81
2022/03/20 02:32:12;;;;;;;;;3.75;3.75;;;;;8.55;41.20;102018.06;5089655;28;45544;-82
2022/03/20 02:34:38;;;;;;;;;4.00;4.00;;;;;8.63;41.04;102023.81;5088055;28;45163;-81
2022/03/20 02:37:05;;;;;;;;;4.25;3.50;;;;;8.55;40.55;102010.22;5100072;27;45089;-81
2022/03/20 02:39:31;;;;;;;;;5.00;3.00;;;;;8.50;40.86;102002.06;5109357;27;45333;-81
2022/03/20 02:42:00;;;;;;;;;2.75;2.50;;;;;8.40;40.85;101986.56;5102067;27;45854;-81
2022/03/20 02:44:47;;;;;;;;;3.00;3.00;;;;;8.63;40.44;102029.97;5099180;27;45386;-81
2022/03/20 02:47:13;;;;;;;;;3.00;3.00;;;;;8.44;40.86;101998.16;5104469;27;45004;-81
2022/03/20 02:49:39;;;;;;;;;4.25;4.25;;;;;8.45;41.37;102005.22;5110063;27;45161;-81
2022/03/20 02:52:06;;;;;;;;;4.00;3.50;;;;;8.44;41.44;102009.53;5108876;27;45145;-81
2022/03/20 02:54:32;;;;;;;;;4.00;3.00;;;;;8.31;41.03;101992.91;5109253;27;45079;-81
2022/03/20 02:56:57;;;;;;;;;4.25;3.75;;;;;8.25;41.61;101986.47;5104166;27;45229;-81
2022/03/20 02:59:23;;;;;;;;;2.00;2.00;;;;;8.32;41.22;101997.34;5088289;28;48321;-81
2022/03/20 03:01:49;;;;;;;;;4.67;4.00;;;;;8.44;41.56;102020.03;5089790;27;45569;-81
2022/03/20 03:04:14;;;;;;;;;4.00;4.00;;;;;8.23;41.04;101988.09;5106394;27;45134;-82
2022/03/20 03:06:39;;;;;;;;;3.33;3.00;;;;;8.40;41.51;102019.72;5088930;28;45446;-82
2022/03/20 03:11:48;;;;;;;;;3.75;3.75;;;;;8.26;41.78;102006.63;5088993;28;45183;-81
2022/03/20 03:16:57;;;;;;;;;3.25;3.25;;;;;8.16;41.99;101978.03;5109516;27;45151;-81
2022/03/20 03:19:23;;;;;;;;;4.00;3.33;;;;;8.15;42.77;101989.31;5108593;27;45177;-82
2022/03/20 03:21:48;;;;;;;;;7.75;4.00;;;;;8.06;42.09;101979.97;5109302;27;45429;-82
2022/03/20 03:24:14;;;;;;;;;6.25;4.00;;;;;8.18;41.97;101999.09;5108289;27;45043;-81
2022/03/20 03:26:40;;;;;;;;;3.00;3.00;;;;;7.99;42.22;101974.34;5108860;27;45364;-81
2022/03/20 03:29:05;;;;;;;;;4.00;4.00;;;;;7.88;42.51;101957.03;5109062;27;44981;-82
2022/03/20 03:31:31;;;;;;;;;3.00;2.00;;;;;8.11;42.62;102005.63;5094072;27;47435;-81
2022/03/20 03:36:41;;;;;;;;;6.00;4.00;;;;;7.84;42.73;101964.59;5088650;28;45069;-81
2022/03/20 03:39:08;;;;;;;;;6.00;4.00;;;;;8.05;43.49;102007.84;5088305;28;44961;-81
2022/03/20 03:41:33;;;;;;;;;4.00;3.75;;;;;8.00;43.62;102009.28;5088789;28;45355;-81
2022/03/20 03:43:58;;;;;;;;;4.50;4.50;;;;;7.79;43.10;101984.31;5088517;28;45349;-82
2022/03/20 03:46:24;;;;;;;;;4.00;3.00;;;;;7.97;43.16;102016.91;5079128;27;45130;-81
2022/03/20 03:48:49;;;;;;;;;4.00;3.50;;;;;7.86;43.36;101995.28;5085887;27;45376;-81
2022/03/20 03:51:15;;;;;;;;;2.00;1.25;;;;;7.94;43.27;102017.63;5080880;28;45206;-80
2022/03/20 03:53:40;;;;;;;;;4.00;4.00;;;;;7.92;43.61;102014.00;5087796;28;45125;-80
2022/03/20 03:56:06;;;;;;;;;4.00;3.33;;;;;7.74;43.65;101973.56;5085667;28;45129;-81
2022/03/20 03:58:32;;;;;;;;;2.75;2.75;;;;;7.83;43.80;102002.94;5085919;28;45329;-81
2022/03/20 04:00:57;;;;;;;;;6.00;4.00;;;;;7.89;43.73;102018.16;5086393;28;45523;-82
2022/03/20 04:03:23;;;;;;;;;4.50;3.50;;;;;7.81;43.82;102001.03;5086609;27;45456;-81
2022/03/20 04:05:48;;;;;;;;;4.00;4.00;;;;;7.63;43.68;101978.06;5087048;27;45120;-81
2022/03/20 04:08:15;;;;;;;;;6.50;4.00;;;;;7.70;43.83;101980.28;5085659;27;45264;-81
2022/03/20 04:10:41;;;;;;;;;4.00;4.00;;;;;7.75;43.93;101998.91;5101507;27;47379;-81
2022/03/20 04:13:06;;;;;;;;;6.00;5.00;;;;;7.79;44.13;102007.88;5086328;27;45186;-81
2022/03/20 04:15:32;;;;;;;;;6.00;5.50;;;;;7.76;44.25;102012.09;5086148;27;45415;-81
2022/03/20 04:18:00;;;;;;;;;5.50;5.50;;;;;7.73;44.25;102006.66;5087010;27;45370;-81
2022/03/20 04:20:26;;;;;;;;;8.25;7.75;;;;;7.70;44.69;102006.47;5088315;27;46149;-81
2022/03/20 04:25:39;;;;;;;;;6.75;6.00;;;;;7.36;44.70;101952.69;5088109;28;45393;-81
2022/03/20 04:28:05;;;;;;;;;3.75;3.75;;;;;7.63;44.95;102006.84;5087404;27;45139;-81
2022/03/20 04:30:32;;;;;;;;;7.50;6.00;;;;;7.62;44.97;101996.28;5087461;28;45908;-81
2022/03/20 04:32:58;;;;;;;;;6.25;6.00;;;;;7.56;45.06;101993.25;5088219;27;45257;-82
2022/03/20 04:35:24;;;;;;;;;7.00;4.50;;;;;7.47;45.42;101989.22;5088359;27;45433;-81
2022/03/20 04:37:53;;;;;;;;;5.00;3.00;;;;;7.54;45.19;101998.41;5091590;27;45288;-81
2022/03/20 04:40:19;;;;;;;;;6.25;5.50;;;;;7.34;45.53;101963.06;5090328;27;45650;-81
2022/03/20 04:42:45;;;;;;;;;4.75;3.75;;;;;7.49;45.57;101989.34;5101340;27;45026;-81
2022/03/20 04:45:11;;;;;;;;;7.00;6.50;;;;;7.42;45.38;101981.88;5090632;27;45214;-81
2022/03/20 04:58:35;;;;;;;;;8.50;7.25;;;;;7.37;46.24;101993.72;5090782;27;45078;-80
2022/03/20 05:01:00;;;;;;;;;8.00;7.00;;;;;7.11;46.39;101942.31;5111866;27;45213;-81
2022/03/20 05:03:27;;;;;;;;;9.50;8.00;;;;;7.34;46.25;101993.50;5103066;27;45005;-81
2022/03/20 05:05:53;;;;;;;;;10.75;8.50;;;;;7.05;46.54;101939.28;5091192;28;45218;-81
2022/03/20 05:08:18;;;;;;;;;8.50;8.00;;;;;7.29;46.60;101992.28;5090609;28;45105;-81
2022/03/20 05:13:28;;;;;;;;;7.75;7.00;;;;;7.14;47.01;101964.34;5090161;28;45134;-81
2022/03/20 05:15:56;;;;;;;;;10.75;8.50;;;;;7.01;47.01;101946.00;5101970;27;45049;-81
2022/03/20 05:18:23;;;;;;;;;11.75;11.50;;;;;7.23;47.21;101996.31;5111096;27;45167;-81
2022/03/20 05:20:51;;;;;;;;;15.25;14.00;;;;;7.21;47.64;101991.78;5111405;27;45462;-81
2022/03/20 05:23:17;;;;;;;;;9.00;9.00;;;;;6.98;47.29;101948.41;5110701;27;45464;-81
2022/03/20 05:25:42;;;;;;;;;12.25;11.00;;;;;7.11;47.42;101978.91;5111167;27;45597;-81
2022/03/20 05:28:08;;;;;;;;;15.00;12.00;;;;;6.96;47.74;101950.00;5110554;27;44949;-81
2022/03/20 05:30:33;;;;;;;;;14.25;13.50;;;;;7.11;47.80;101978.91;5111377;27;45545;-81
2022/03/20 05:32:59;;;;;;;;;18.50;15.50;;;;;7.11;47.88;101987.66;5109522;27;45148;-81
2022/03/20 05:35:25;;;;;;;;;14.00;14.00;;;;;6.96;48.50;101969.22;5109145;27;45190;-81
2022/03/20 05:37:51;;;;;;;;;13.75;13.00;;;;;6.80;48.14;101939.28;5111115;27;45026;-81
2022/03/20 05:40:17;;;;;;;;;14.75;12.00;;;;;6.62;48.39;101915.44;5109041;27;47263;-80
2022/03/20 05:42:43;;;;;;;;;15.00;12.50;;;;;7.01;48.71;101995.66;5111099;27;45694;-81
2022/03/20 05:45:12;;;;;;;;;13.50;13.00;;;;;6.93;48.63;101982.06;5111152;27;45049;-81
2022/03/20 05:47:40;;;;;;;;;14.00;13.25;;;;;6.93;48.90;101989.00;5101286;27;45047;-81
2022/03/20 05:50:06;;;;;;;;;12.50;12.25;;;;;6.83;48.81;101976.09;5089542;28;45468;-80
2022/03/20 05:52:34;;;;;;;;;13.75;13.25;;;;;6.90;48.93;101994.94;5089597;27;45057;-81
2022/03/20 05:55:02;;;;;;;;;15.75;15.75;;;;;6.90;49.00;101988.81;5090340;28;45006;-81
2022/03/20 06:00:20;;;;;;;;;11.50;11.00;;;;;6.84;49.24;101975.28;5089523;28;45329;-81
2022/03/20 06:02:46;;;;;;;;;13.00;11.25;;;;;6.92;49.03;101987.19;5090102;27;45146;-81
2022/03/20 06:05:11;;;;;;;;;15.50;14.25;;;;;6.94;49.47;101985.56;5089076;27;45162;-81
2022/03/20 06:07:42;;;;;;;;;16.25;13.75;;;;;6.65;49.62;101923.47;5089607;27;45197;-81
2022/03/20 06:10:19;;;;;;;;;13.25;12.75;;;;;6.93;49.74;101982.06;5088852;27;45373;-81
2022/03/20 06:12:45;;;;;;;;;11.75;11.75;;;;;6.90;49.61;101988.81;5089125;28;45480;-81
2022/03/20 06:15:12;;;;;;;;;18.00;13.00;;;;;6.54;49.65;101930.56;5095470;27;45107;-81
2022/03/20 06:17:44;;;;;;;;;12.75;12.00;;;;;6.85;50.05;101990.19;5110684;27;45371;-86
2022/03/20 06:20:11;;;;;;;;;13.00;12.00;;;;;6.82;49.99;101995.19;5096156;27;45635;-81
2022/03/20 06:22:36;;;;;;;;;12.25;9.25;;;;;6.80;49.98;101997.72;5089601;28;45458;-81
2022/03/20 06:25:04;;;;;;;;;13.75;12.25;;;;;6.84;50.40;101998.81;5089423;27;45045;-82
2022/03/20 06:27:47;;;;;;;;;13.75;13.25;;;;;6.62;50.53;101957.22;5088564;28;45109;-81
2022/03/20 06:30:14;;;;;;;;;13.00;12.00;;;;;6.84;50.45;101996.19;5089276;28;45618;-81
2022/03/20 06:32:41;;;;;;;;;12.25;11.25;;;;;6.68;50.16;101961.16;5106261;27;45402;-82
2022/03/20 06:35:08;;;;;;;;;11.50;11.25;;;;;6.95;49.92;102009.22;5109633;27;45410;-81
2022/03/20 06:37:38;;;;;;;;;16.25;13.00;;;;;7.01;50.06;102019.19;5095068;27;45212;-81
2022/03/20 06:40:04;;;;;;;;;13.25;11.00;;;;;7.03;50.09;102011.44;5088940;27;45904;-81
2022/03/20 06:42:30;;;;;;;;;13.25;12.00;;;;;6.76;50.10;101961.72;5088512;27;45098;-81
2022/03/20 06:44:58;;;;;;;;;14.00;13.25;;;;;7.07;49.72;102017.00;5089673;28;45004;-81
2022/03/20 06:47:24;;;;;;;;;12.75;12.00;;;;;6.93;50.24;101989.91;5089342;27;45375;-82
2022/03/20 06:49:50;;;;;;;;;9.25;9.25;;;;;7.10;50.12;102018.94;5087910;28;47373;-81
2022/03/20 06:52:15;;;;;;;;;12.00;11.33;;;;;6.92;49.88;101980.25;5088975;27;47062;-81
2022/03/20 06:54:40;;;;;;;;;12.00;12.00;;;;;7.08;50.17;101999.59;5088668;27;45216;-81
2022/03/20 06:57:06;;;;;;;;;12.67;10.33;;;;;7.02;50.19;101986.13;5086372;27;45218;-81
2022/03/20 06:59:31;;;;;;;;;12.25;11.75;;;;;7.26;50.40;102027.00;5087857;27;45355;-81
2022/03/20 07:01:56;;;;;;;;;14.75;12.50;;;;;7.30;49.97;102028.13;5089443;28;45086;-81
2022/03/20 07:04:21;;;;;;;;;13.67;12.00;;;;;7.30;50.25;102033.38;5102912;27;45384;-81
2022/03/20 07:06:47;;;;;;;;;13.00;12.00;;;;;7.36;49.94;102031.16;5109839;27;45266;-81
2022/03/20 07:09:12;;;;;;;;;16.00;14.00;;;;;7.20;50.08;101998.75;5106660;27;46899;-81
2022/03/20 07:11:37;;;;;;;;;15.33;13.67;;;;;7.28;50.17;102017.53;5098974;27;45166;-80
2022/03/20 07:14:03;;;;;;;;;16.25;14.25;;;;;7.19;50.03;101990.75;5089259;27;45028;-81
2022/03/20 07:16:31;;;;;;;;;14.00;13.00;;;;;7.39;49.89;102023.50;5088848;27;45062;-81
2022/03/20 07:18:57;;;;;;;;;15.75;13.75;;;;;7.48;50.18;102039.81;5086686;27;45504;-81
2022/03/20 07:21:23;;;;;;;;;13.50;13.50;;;;;7.50;50.09;102040.84;5087289;28;45105;-80
2022/03/20 07:23:48;;;;;;;;;15.75;14.25;;;;;7.47;50.05;102027.56;5089219;28;45241;-81
2022/03/20 07:31:42;;;;;;;;;17.25;15.50;;;;;7.65;49.87;102039.25;5088335;28;45220;-81
2022/03/20 07:34:07;;;;;;;;;16.75;15.75;;;;;7.70;49.93;102036.94;5087861;27;45192;-81
2022/03/20 07:36:32;;;;;;;;;19.00;16.00;;;;;7.52;49.69;102001.69;5086575;28;45136;-81
2022/03/20 07:38:58;;;;;;;;;20.25;17.75;;;;;7.76;50.02;102042.59;5088077;27;45442;-81
2022/03/20 07:41:23;;;;;;;;;24.75;21.75;;;;;7.52;49.73;101988.63;5087542;27;45151;-81
2022/03/20 07:43:49;;;;;;;;;24.25;22.50;;;;;7.73;49.99;102021.44;5088805;27;45138;-81
2022/03/20 07:46:14;;;;;;;;;18.50;18.25;;;;;7.89;50.26;102034.75;5086622;28;44939;-81
2022/03/20 07:48:40;;;;;;;;;21.00;19.50;;;;;7.89;49.94;102026.00;5087945;27;45301;-81
2022/03/20 07:51:06;;;;;;;;;22.00;18.75;;;;;7.99;49.89;102036.28;5088277;27;45012;-81
2022/03/20 07:53:31;;;;;;;;;20.50;19.00;;;;;8.00;49.51;102038.97;5087290;28;45327;-81
2022/03/20 07:55:57;;;;;;;;;23.50;20.25;;;;;8.04;49.69;102034.84;5088051;27;45333;-82
2022/03/20 07:58:22;;;;;;;;;21.00;18.75;;;;;7.86;49.72;102008.38;5087481;28;45531;-81
2022/03/20 08:00:48;;;;;;;;;24.75;24.25;;;;;7.86;49.70;102008.38;5088288;27;45169;-81
2022/03/20 08:03:13;;;;;;;;;26.00;23.50;;;;;8.01;49.91;102029.41;5085931;28;45147;-81
2022/03/20 08:05:39;;;;;;;;;27.50;24.25;;;;;8.18;49.74;102036.66;5087398;27;45272;-81
2022/03/20 08:08:05;;;;;;;;;24.75;22.25;;;;;8.15;49.30;102028.59;5091653;27;45475;-81
2022/03/20 08:10:31;;;;;;;;;28.00;26.75;;;;;8.25;49.30;102035.34;5110507;27;45129;-81
2022/03/20 08:12:57;;;;;;;;;26.00;24.00;;;;;8.05;49.57;102007.84;5100196;27;45094;-82
2022/03/20 08:15:24;;;;;;;;;26.75;23.00;;;;;8.17;49.64;102021.72;5091668;28;45004;-81
2022/03/20 08:17:50;;;;;;;;;28.00;25.75;;;;;7.96;49.27;101981.06;5091244;27;45104;-81
2022/03/20 08:20:17;;;;;;;;;24.00;22.00;;;;;8.29;49.73;102039.97;5089356;27;45158;-81
2022/03/20 08:22:43;;;;;;;;;26.75;24.25;;;;;8.33;49.68;102033.22;5090624;28;45185;-81
2022/03/20 08:25:10;;;;;;;;;32.25;25.25;;;;;7.81;49.31;101941.72;5090762;28;45204;-81
2022/03/20 08:27:42;;;;;;;;;35.00;31.00;;;;;8.20;49.98;101998.38;5091018;28;45767;-82
2022/03/20 08:30:11;;;;;;;;;28.00;25.75;;;;;8.03;49.87;101946.66;5091440;28;45189;-82
2022/03/20 08:32:37;;;;;;;;;27.75;24.75;;;;;8.58;49.24;102031.38;5090992;28;45098;-82
2022/03/20 08:35:04;;;;;;;;;26.75;24.75;;;;;8.14;48.98;101958.72;5090445;27;45065;-82
2022/03/20 08:37:31;;;;;;;;;25.75;24.75;;;;;8.17;49.46;101964.13;5090369;28;45098;-82
2022/03/20 08:39:57;;;;;;;;;31.00;26.25;;;;;8.55;49.77;102012.84;5090827;28;45520;-81
2022/03/20 08:42:22;;;;;;;;;30.25;27.25;;;;;8.15;49.62;101946.50;5090871;27;45145;-81
2022/03/20 08:44:50;;;;;;;;;28.25;26.00;;;;;8.75;49.31;102043.81;5091088;28;45071;-82
2022/03/20 08:47:16;;;;;;;;;33.25;30.75;;;;;8.58;49.19;102009.53;5089982;27;45756;-82
2022/03/20 08:49:42;;;;;;;;;27.25;26.00;;;;;8.28;49.12;101952.63;5091050;28;45449;-82
2022/03/20 08:52:08;;;;;;;;;33.25;31.50;;;;;8.88;49.05;102042.88;5090177;28;45193;-81
2022/03/20 08:54:36;;;;;;;;;33.50;31.75;;;;;8.32;49.20;101955.44;5090424;28;45512;-82
2022/03/20 08:57:05;;;;;;;;;31.50;26.75;;;;;8.93;49.18;102049.31;5090403;28;45348;-81
2022/03/20 08:59:31;;;;;;;;;31.25;30.25;;;;;8.97;49.26;102053.94;5088027;28;45097;-81
2022/03/20 09:01:56;;;;;;;;;31.75;26.75;;;;;8.44;49.53;101957.16;5103440;27;45122;-81
2022/03/20 09:04:21;;;;;;;;;30.67;27.33;;;;;8.98;48.73;102041.72;5110970;27;45232;-82
2022/03/20 09:06:47;;;;;;;;;32.33;31.67;;;;;9.03;48.99;102051.69;5090232;27;50034;-80
2022/03/20 09:09:14;;;;;;;;;29.50;28.50;;;;;9.01;49.10;102047.16;5088029;28;45340;-82
2022/03/20 09:11:41;;;;;;;;;39.00;33.50;;;;;8.94;49.35;102027.50;5096773;27;45038;-81
2022/03/20 09:14:07;;;;;;;;;29.50;27.25;;;;;9.17;49.12;102055.16;5090348;27;45325;-82
2022/03/20 09:19:18;;;;;;;;;28.50;26.75;;;;;9.20;49.30;102026.47;5090086;28;45627;-82
2022/03/20 09:21:44;;;;;;;;;28.00;26.00;;;;;9.28;49.13;102035.72;5090237;27;45614;-81
2022/03/20 09:24:11;;;;;;;;;31.00;28.00;;;;;9.32;48.86;102042.06;5089142;27;45050;-82
2022/03/20 09:26:36;;;;;;;;;30.25;27.75;;;;;9.36;48.79;102040.50;5089597;27;45900;-82
2022/03/20 09:29:02;;;;;;;;;36.50;31.50;;;;;9.53;48.88;102068.69;5090433;27;45133;-81
2022/03/20 09:31:31;;;;;;;;;36.25;32.00;;;;;9.49;48.96;102048.31;5090007;27;45008;-82
2022/03/20 09:33:56;;;;;;;;;28.50;27.25;;;;;9.57;48.81;102060.19;5091573;27;45361;-82
2022/03/20 09:36:22;;;;;;;;;38.75;32.00;;;;;9.54;48.38;102049.50;5087977;28;45325;-81
2022/03/20 09:38:47;;;;;;;;;31.00;28.67;;;;;9.67;48.75;102059.91;5089647;28;44949;-82
2022/03/20 09:41:13;;;;;;;;;33.25;29.50;;;;;9.73;48.89;102062.91;5075918;28;45496;-81
2022/03/20 09:43:40;;;;;;;;;31.00;28.25;;;;;9.70;48.61;102051.31;5082045;28;45126;-81
2022/03/20 09:46:06;;;;;;;;;32.75;30.50;;;;;9.82;48.33;102055.56;5078719;28;45307;-81
2022/03/20 09:48:31;;;;;;;;;31.50;30.00;;;;;9.83;49.05;102054.75;5082647;28;45093;-81
2022/03/20 09:50:59;;;;;;;;;37.00;32.75;;;;;9.86;48.70;102051.41;5083021;27;45390;-81
2022/03/20 09:53:25;;;;;;;;;31.25;30.00;;;;;9.91;48.17;102039.44;5083937;27;45139;-82
2022/03/20 09:55:50;;;;;;;;;33.50;32.25;;;;;9.91;47.82;102036.81;5076537;28;46021;-81
2022/03/20 09:58:16;;;;;;;;;34.00;32.00;;;;;10.03;47.95;102052.38;5086907;28;45295;-82
2022/03/20 10:00:41;;;;;;;;;33.00;32.00;;;;;10.06;47.62;102052.56;5085798;28;45020;-81
2022/03/20 10:03:17;;;;;;;;;34.25;29.75;;;;;10.11;47.36;102051.09;5101471;27;45372;-82
2022/03/20 10:05:42;;;;;;;;;34.00;30.00;;;;;10.17;47.72;102051.44;5069882;28;45059;-82
2022/03/20 10:08:10;;;;;;;;;29.00;28.00;;;;;10.21;47.96;102056.06;5084591;28;45209;-82
2022/03/20 10:10:36;;;;;;;;;31.75;27.25;;;;;10.29;47.89;102053.88;5081815;28;44947;-81
2022/03/20 10:13:10;;;;;;;;;30.25;27.75;;;;;10.39;47.63;102057.94;5079563;28;45459;-82
2022/03/20 10:15:38;;;;;;;;;28.50;25.75;;;;;10.41;46.97;102040.56;5080206;28;45305;-81
2022/03/20 10:18:24;;;;;;;;;24.00;24.00;;;;;10.43;47.09;102039.81;5089651;28;45784;-81
2022/03/20 10:20:57;;;;;;;;;29.75;27.00;;;;;10.56;47.26;102051.91;5086584;28;45209;-81
2022/03/20 10:23:42;;;;;;;;;31.75;29.50;;;;;10.54;47.26;102033.44;5095703;27;45399;-82
2022/03/20 10:26:11;;;;;;;;;29.50;28.00;;;;;10.71;47.04;102047.50;5089645;28;46041;-81
2022/03/20 10:28:42;;;;;;;;;34.25;26.75;;;;;10.75;45.95;102044.22;5088944;27;45539;-81
2022/03/20 10:31:10;;;;;;;;;24.00;22.00;;;;;10.61;46.61;102012.75;5084606;27;45170;-83
2022/03/20 10:33:40;;;;;;;;;37.75;29.75;;;;;10.75;46.28;102024.91;5086234;27;45093;-81
2022/03/20 10:36:14;;;;;;;;;35.00;31.75;;;;;11.01;46.84;102055.25;5091391;27;46147;-81
2022/03/20 10:38:42;;;;;;;;;29.50;26.75;;;;;10.91;45.66;102017.03;5088003;27;45334;-81
2022/03/20 10:41:28;;;;;;;;;24.00;23.00;;;;;11.12;45.71;102056.72;5088101;28;45046;-81
2022/03/20 10:43:56;;;;;;;;;39.50;32.00;;;;;11.22;45.04;102056.38;5105107;27;45219;-81
2022/03/20 10:46:28;;;;;;;;;23.50;20.25;;;;;11.26;44.45;102050.47;5088930;28;45606;-81
2022/03/20 10:48:56;;;;;;;;;52.50;43.75;;;;;11.30;44.67;102049.81;5084819;27;45467;-81
2022/03/20 10:51:41;;;;;;;;;27.25;26.00;;;;;11.36;44.60;102044.84;5076443;28;45102;-82
2022/03/20 10:54:15;;;;;;;;;29.50;27.25;;;;;11.46;44.21;102042.69;5078758;28;44933;-81
2022/03/20 10:56:57;;;;;;;;;26.50;25.00;;;;;11.61;43.70;102049.66;5089051;28;46107;-81
2022/03/20 10:59:24;;;;;;;;;28.75;26.00;;;;;11.40;44.09;101987.09;5088514;27;45502;-81
2022/03/20 11:01:50;;;;;;;;;31.50;30.50;;;;;11.80;44.01;102045.31;5077163;28;45234;-82
2022/03/20 11:04:17;;;;;;;;;31.25;29.50;;;;;11.69;43.14;102004.38;5088612;28;45290;-82
2022/03/20 11:06:45;;;;;;;;;23.75;23.25;;;;;11.81;43.33;102010.25;5089227;27;45539;-81
2022/03/20 11:09:11;;;;;;;;;22.00;19.00;;;;;11.88;43.06;102008.03;5087748;27;45097;-82
2022/03/20 11:11:44;;;;;;;;;24.50;22.00;;;;;12.16;42.25;102037.47;5086718;27;45273;-82
2022/03/20 11:14:15;;;;;;;;;25.75;24.50;;;;;11.76;41.74;101970.50;5086198;27;45403;-82
2022/03/20 11:16:42;;;;;;;;;21.75;19.75;;;;;11.84;41.25;101969.19;5088806;27;45841;-81
2022/03/20 11:19:11;;;;;;;;;14.75;14.25;;;;;12.30;39.59;102021.47;5079930;28;45259;-81
2022/03/20 11:21:40;;;;;;;;;16.25;15.25;;;;;12.42;39.46;102031.72;5084459;28;45417;-82
2022/03/20 11:24:07;;;;;;;;;18.00;16.25;;;;;12.29;39.72;102009.13;5083824;28;45461;-81
2022/03/20 11:26:34;;;;;;;;;20.75;20.00;;;;;12.31;40.02;102011.84;5081628;28;45160;-82
2022/03/20 11:29:04;;;;;;;;;28.00;25.25;;;;;12.54;40.21;102031.41;5078272;28;45131;-82
2022/03/20 11:31:34;;;;;;;;;25.75;25.25;;;;;12.60;40.45;102031.69;5076795;28;45323;-81
2022/03/20 11:34:03;;;;;;;;;31.75;28.25;;;;;12.53;41.39;101992.69;5086079;28;45644;-81
2022/03/20 11:36:29;;;;;;;;;23.25;21.25;;;;;12.86;41.17;102030.28;5087374;27;45646;-81
2022/03/20 11:39:13;;;;;;;;;35.00;30.75;;;;;12.79;40.37;102000.03;5077576;28;45420;-82
2022/03/20 11:41:39;;;;;;;;;29.75;27.25;;;;;13.01;40.34;102030.97;5077111;27;45172;-81
2022/03/20 11:44:22;;;;;;;;;26.75;25.00;;;;;13.08;40.25;102021.56;5070453;27;45808;-81
2022/03/20 11:47:16;;;;;;;;;28.25;27.25;;;;;13.22;40.42;102033.69;5083397;28;46387;-81
2022/03/20 11:49:41;;;;;;;;;26.50;23.25;;;;;13.16;40.63;102022.84;5087027;28;45098;-82
2022/03/20 11:52:09;;;;;;;;;27.00;26.33;;;;;13.26;40.67;102032.09;5079849;28;48317;-81
2022/03/20 11:54:40;;;;;;;;;24.50;22.75;;;;;13.58;40.33;102017.63;5089924;28;45239;-81
2022/03/20 11:57:26;;;;;;;;;27.75;25.00;;;;;13.91;39.56;101989.09;5085710;28;45607;-82